Wetterdaten: Sonntag, 05.04.2015
Datum Zeit Temp. A. Feuchte A. Luftdruck Regen Wind Richtung Richtung Sonnenschein ET UV Solar Taupunkt Windchill Windben Empfang
05.04.2015 00:00 3,9 C 60 % 1014,1 hPa 0,0 l/m 0,0 km/h (0 Bft) S 176 0 min 0,000 mm 0,0 UV-I 0 W/m -3,1 C 3,9 C 0,0 km/h (0 Bft) 0,00 %
05.04.2015 00:15 3,8 C 61 % 1014,2 hPa 0,0 l/m 0,0 km/h (0 Bft) S 185 0 min 0,000 mm 0,0 UV-I 0 W/m -3,0 C 3,8 C 0,0 km/h (0 Bft) 0,00 %
05.04.2015 00:30 3,6 C 59 % 1014,4 hPa 0,0 l/m 0,0 km/h (0 Bft) S 178 0 min 0,000 mm 0,0 UV-I 0 W/m -3,6 C 3,6 C 0,0 km/h (0 Bft) 0,00 %
05.04.2015 00:45 3,5 C 58 % 1014,4 hPa 0,0 l/m 0,0 km/h (0 Bft) O-SO 107 0 min 0,000 mm 0,0 UV-I 0 W/m -4,0 C 3,5 C 0,0 km/h (0 Bft) 0,00 %
05.04.2015 01:00 3,3 C 62 % 1014,4 hPa 0,0 l/m 0,0 km/h (0 Bft) S 188 0 min 0,000 mm 0,0 UV-I 0 W/m -3,3 C 3,3 C 0,0 km/h (0 Bft) 0,00 %
05.04.2015 01:15 3,2 C 63 % 1014,7 hPa 0,0 l/m 0,0 km/h (0 Bft) S 190 0 min 0,000 mm 0,0 UV-I 0 W/m -3,1 C 3,2 C 0,0 km/h (0 Bft) 0,00 %
05.04.2015 01:30 3,0 C 66 % 1014,7 hPa 0,0 l/m 0,0 km/h (0 Bft) S 173 0 min 0,000 mm 0,0 UV-I 0 W/m -2,7 C 3,0 C 0,0 km/h (0 Bft) 0,00 %
05.04.2015 01:45 2,8 C 64 % 1014,8 hPa 0,0 l/m 0,0 km/h (0 Bft) S 173 0 min 0,000 mm 0,0 UV-I 0 W/m -3,3 C 2,8 C 0,0 km/h (0 Bft) 0,00 %
05.04.2015 02:00 2,7 C 63 % 1014,8 hPa 0,0 l/m 0,0 km/h (0 Bft) S 191 0 min 0,000 mm 0,0 UV-I 0 W/m -3,6 C 2,7 C 0,0 km/h (0 Bft) 0,00 %
05.04.2015 02:15 2,6 C 65 % 1014,9 hPa 0,0 l/m 0,0 km/h (0 Bft) S 191 0 min 0,000 mm 0,0 UV-I 0 W/m -3,3 C 2,6 C 0,0 km/h (0 Bft) 0,00 %
05.04.2015 02:30 2,5 C 58 % 1014,9 hPa 0,0 l/m 0,0 km/h (0 Bft) O 95 0 min 0,000 mm 0,0 UV-I 0 W/m -4,9 C 2,5 C 0,0 km/h (0 Bft) 0,00 %
05.04.2015 02:45 2,8 C 63 % 1015,0 hPa 0,0 l/m 0,0 km/h (0 Bft) O-SO 111 0 min 0,000 mm 0,0 UV-I 0 W/m -3,5 C 2,8 C 0,0 km/h (0 Bft) 0,00 %
05.04.2015 03:00 2,5 C 61 % 1014,7 hPa 0,0 l/m 0,4 km/h (0 Bft) S 174 0 min 0,000 mm 0,0 UV-I 0 W/m -4,2 C 2,5 C 4,0 km/h (1 Bft) 0,00 %
05.04.2015 03:15 2,4 C 58 % 1015,1 hPa 0,0 l/m 0,7 km/h (0 Bft) O-SO 120 0 min 0,000 mm 0,0 UV-I 0 W/m -5,0 C 2,4 C 4,0 km/h (1 Bft) 0,00 %
05.04.2015 03:30 2,3 C 54 % 1015,1 hPa 0,0 l/m 0,0 km/h (0 Bft) SO 134 0 min 0,000 mm 0,0 UV-I 0 W/m -6,0 C 2,3 C 0,0 km/h (0 Bft) 0,00 %
05.04.2015 03:45 1,9 C 58 % 1015,4 hPa 0,0 l/m 0,0 km/h (0 Bft) S 174 0 min 0,000 mm 0,0 UV-I 0 W/m -5,5 C 1,9 C 0,0 km/h (0 Bft) 0,00 %
05.04.2015 04:00 1,4 C 60 % 1015,6 hPa 0,0 l/m 0,0 km/h (0 Bft) S-SW 197 0 min 0,000 mm 0,0 UV-I 0 W/m -5,5 C 1,4 C 0,0 km/h (0 Bft) 0,00 %
05.04.2015 04:15 1,0 C 61 % 1015,7 hPa 0,0 l/m 0,0 km/h (0 Bft) S 186 0 min 0,000 mm 0,0 UV-I 0 W/m -5,7 C 1,0 C 0,0 km/h (0 Bft) 0,00 %
05.04.2015 04:30 0,9 C 59 % 1016,0 hPa 0,0 l/m 0,7 km/h (0 Bft) O-NO 61 0 min 0,000 mm 0,0 UV-I 0 W/m -6,2 C 0,9 C 4,0 km/h (1 Bft) 0,00 %
05.04.2015 04:45 1,1 C 59 % 1015,9 hPa 0,0 l/m 0,0 km/h (0 Bft) SO 134 0 min 0,000 mm 0,0 UV-I 0 W/m -6,0 C 1,1 C 0,0 km/h (0 Bft) 0,00 %
05.04.2015 05:00 0,9 C 59 % 1016,2 hPa 0,0 l/m 0,0 km/h (0 Bft) N-NW 341 0 min 0,000 mm 0,0 UV-I 0 W/m -6,2 C 0,9 C 0,0 km/h (0 Bft) 0,00 %
05.04.2015 05:15 0,8 C 60 % 1016,2 hPa 0,0 l/m 0,0 km/h (0 Bft) N-NW 335 0 min 0,000 mm 0,0 UV-I 0 W/m -6,1 C 0,8 C 0,0 km/h (0 Bft) 0,00 %
05.04.2015 05:30 0,5 C 62 % 1016,3 hPa 0,0 l/m 0,0 km/h (0 Bft) SO 128 0 min 0,000 mm 0,0 UV-I 0 W/m -5,9 C 0,5 C 0,0 km/h (0 Bft) 0,00 %
05.04.2015 05:45 0,3 C 63 % 1016,6 hPa 0,0 l/m 0,0 km/h (0 Bft) O-SO 117 0 min 0,000 mm 0,0 UV-I 0 W/m -5,9 C 0,3 C 0,0 km/h (0 Bft) 0,00 %
05.04.2015 06:00 0,0 C 65 % 1017,0 hPa 0,0 l/m 0,0 km/h (0 Bft) S 173 0 min 0,000 mm 0,0 UV-I 0 W/m -5,8 C 0,0 C 0,0 km/h (0 Bft) 0,00 %
05.04.2015 06:15 -0,3 C 65 % 1017,4 hPa 0,0 l/m 0,0 km/h (0 Bft) S-SW 193 0 min 0,000 mm 0,0 UV-I 0 W/m -6,1 C -0,3 C 0,0 km/h (0 Bft) 0,00 %
05.04.2015 06:30 -0,3 C 66 % 1017,5 hPa 0,0 l/m 0,0 km/h (0 Bft) S 189 0 min 0,000 mm 0,0 UV-I 0 W/m -5,9 C -0,3 C 0,0 km/h (0 Bft) 0,00 %
05.04.2015 06:45 -0,5 C 67 % 1017,8 hPa 0,0 l/m 0,0 km/h (0 Bft) SW 215 0 min 0,000 mm 0,0 UV-I 6 W/m -5,9 C -0,5 C 0,0 km/h (0 Bft) 0,00 %
05.04.2015 07:00 -0,5 C 67 % 1017,9 hPa 0,0 l/m 0,0 km/h (0 Bft) S-SW 209 0 min 0,000 mm 0,0 UV-I 23 W/m -5,9 C -0,5 C 0,0 km/h (0 Bft) 0,00 %
05.04.2015 07:15 -0,2 C 68 % 1018,2 hPa 0,0 l/m 0,0 km/h (0 Bft) SW 214 0 min 0,000 mm 0,0 UV-I 26 W/m -5,4 C -0,2 C 0,0 km/h (0 Bft) 0,00 %
05.04.2015 07:30 -0,1 C 69 % 1018,3 hPa 0,0 l/m 0,0 km/h (0 Bft) S-SW 206 0 min 0,000 mm 1,0 UV-I 37 W/m -5,1 C -0,1 C 0,0 km/h (0 Bft) 0,00 %
05.04.2015 07:45 0,2 C 68 % 1018,5 hPa 0,0 l/m 0,0 km/h (0 Bft) S-SW 192 0 min 0,000 mm 0,0 UV-I 33 W/m -5,0 C 0,2 C 0,0 km/h (0 Bft) 0,00 %
05.04.2015 08:00 0,5 C 67 % 1018,6 hPa 0,0 l/m 0,0 km/h (0 Bft) SW 226 0 min 0,000 mm 1,0 UV-I 36 W/m -4,9 C 0,5 C 0,0 km/h (0 Bft) 0,00 %
05.04.2015 08:15 1,0 C 65 % 1018,6 hPa 0,0 l/m 0,0 km/h (0 Bft) S 188 0 min 0,000 mm 1,0 UV-I 79 W/m -4,8 C 1,0 C 0,0 km/h (0 Bft) 0,00 %
05.04.2015 08:30 1,6 C 62 % 1018,8 hPa 0,0 l/m 0,0 km/h (0 Bft) S 184 0 min 0,000 mm 1,0 UV-I 85 W/m -4,9 C 1,6 C 0,0 km/h (0 Bft) 0,00 %
05.04.2015 08:45 2,1 C 61 % 1018,9 hPa 0,0 l/m 0,0 km/h (0 Bft) S 189 0 min 0,000 mm 1,0 UV-I 109 W/m -4,6 C 2,1 C 0,0 km/h (0 Bft) 0,00 %
05.04.2015 09:00 2,7 C 64 % 1018,9 hPa 0,0 l/m 0,0 km/h (0 Bft) S-SW 201 0 min 0,000 mm 2,0 UV-I 119 W/m -3,4 C 2,7 C 0,0 km/h (0 Bft) 0,00 %
05.04.2015 09:15 2,8 C 63 % 1019,2 hPa 0,0 l/m 0,0 km/h (0 Bft) W-SW 253 0 min 0,000 mm 2,0 UV-I 132 W/m -3,5 C 2,8 C 0,0 km/h (0 Bft) 0,00 %
05.04.2015 09:30 3,9 C 61 % 1018,9 hPa 0,0 l/m 0,0 km/h (0 Bft) S 184 0 min 0,000 mm 2,0 UV-I 206 W/m -2,9 C 3,9 C 0,0 km/h (0 Bft) 0,00 %
05.04.2015 09:45 5,0 C 54 % 1018,9 hPa 0,0 l/m 2,2 km/h (1 Bft) W-SW 256 0 min 0,000 mm 2,0 UV-I 141 W/m -3,5 C 5,0 C 4,0 km/h (1 Bft) 0,00 %
05.04.2015 10:00 5,3 C 52 % 1018,9 hPa 0,0 l/m 0,0 km/h (0 Bft) O 93 15 min 0,000 mm 3,0 UV-I 319 W/m -3,7 C 5,3 C 0,0 km/h (0 Bft) 0,00 %
05.04.2015 10:15 5,3 C 51 % 1019,0 hPa 0,0 l/m 0,0 km/h (0 Bft) SW 230 15 min 0,000 mm 2,0 UV-I 391 W/m -4,0 C 5,3 C 0,0 km/h (0 Bft) 0,00 %
05.04.2015 10:30 3,9 C 59 % 1019,4 hPa 0,0 l/m 4,7 km/h (1 Bft) NO 40 0 min 0,000 mm 2,0 UV-I 189 W/m -3,4 C 3,9 C 7,9 km/h (2 Bft) 0,00 %
05.04.2015 10:45 3,1 C 63 % 1019,6 hPa 0,0 l/m 2,9 km/h (1 Bft) S 181 0 min 0,000 mm 2,0 UV-I 186 W/m -3,2 C 3,1 C 7,9 km/h (2 Bft) 0,00 %
05.04.2015 11:00 3,0 C 65 % 1019,7 hPa 0,0 l/m 5,4 km/h (1 Bft) O-SO 110 0 min 0,000 mm 2,0 UV-I 159 W/m -2,9 C 3,0 C 7,9 km/h (2 Bft) 0,00 %
05.04.2015 11:15 2,6 C 66 % 1019,9 hPa 0,0 l/m 5,8 km/h (2 Bft) O-NO 65 0 min 0,000 mm 1,0 UV-I 178 W/m -3,1 C 2,6 C 7,9 km/h (2 Bft) 0,00 %
05.04.2015 11:30 2,1 C 75 % 1019,9 hPa 0,0 l/m 0,0 km/h (0 Bft) SW 234 0 min 0,000 mm 3,0 UV-I 178 W/m -1,9 C 2,1 C 0,0 km/h (0 Bft) 0,00 %
05.04.2015 11:45 4,3 C 59 % 1019,6 hPa 0,0 l/m 0,0 km/h (0 Bft) S-SW 197 15 min 0,000 mm 3,0 UV-I 405 W/m -3,0 C 4,3 C 0,0 km/h (0 Bft) 0,00 %
05.04.2015 12:00 4,9 C 57 % 1019,4 hPa 0,0 l/m 0,7 km/h (0 Bft) SO 127 15 min 0,000 mm 4,0 UV-I 505 W/m -2,9 C 4,9 C 4,0 km/h (1 Bft) 0,00 %
05.04.2015 12:15 5,5 C 54 % 1019,2 hPa 0,0 l/m 1,4 km/h (1 Bft) W-SW 256 15 min 0,000 mm 4,0 UV-I 621 W/m -3,1 C 5,5 C 4,0 km/h (1 Bft) 0,00 %
05.04.2015 12:30 4,6 C 54 % 1019,3 hPa 0,0 l/m 9,0 km/h (2 Bft) W-SW 256 0 min 0,000 mm 2,0 UV-I 360 W/m -3,9 C 2,4 C 11,9 km/h (2 Bft) 0,00 %
05.04.2015 12:45 4,6 C 52 % 1019,3 hPa 0,0 l/m 0,0 km/h (0 Bft) S-SW 211 0 min 0,000 mm 4,0 UV-I 244 W/m -4,4 C 4,6 C 0,0 km/h (0 Bft) 0,00 %
05.04.2015 13:00 5,7 C 50 % 1019,1 hPa 0,0 l/m 0,0 km/h (0 Bft) W-NW 292 15 min 0,000 mm 1,0 UV-I 708 W/m -3,9 C 5,7 C 0,0 km/h (0 Bft) 0,00 %
05.04.2015 13:15 5,1 C 55 % 1019,2 hPa 0,0 l/m 0,0 km/h (0 Bft) S-SO 162 0 min 0,000 mm 2,0 UV-I 130 W/m -3,2 C 5,1 C 0,0 km/h (0 Bft) 0,00 %
05.04.2015 13:30 5,8 C 55 % 1019,2 hPa 0,0 l/m 0,0 km/h (0 Bft) W-SW 252 0 min 0,000 mm 5,0 UV-I 305 W/m -2,5 C 5,8 C 0,0 km/h (0 Bft) 0,00 %
05.04.2015 13:45 5,9 C 55 % 1019,1 hPa 0,0 l/m 2,2 km/h (1 Bft) O 90 15 min 0,000 mm 1,0 UV-I 607 W/m -2,4 C 5,9 C 4,0 km/h (1 Bft) 0,00 %
05.04.2015 14:00 3,5 C 66 % 1019,5 hPa 0,0 l/m 0,0 km/h (0 Bft) S 174 0 min 0,000 mm 2,0 UV-I 84 W/m -2,2 C 3,5 C 0,0 km/h (0 Bft) 0,00 %
05.04.2015 14:15 3,9 C 64 % 1019,3 hPa 0,3 l/m 0,0 km/h (0 Bft) SW 235 0 min 0,000 mm 3,0 UV-I 152 W/m -2,3 C 3,9 C 0,0 km/h (0 Bft) 0,00 %
05.04.2015 14:30 5,7 C 60 % 1019,2 hPa 0,0 l/m 0,4 km/h (0 Bft) S-SW 208 15 min 0,000 mm 3,0 UV-I 601 W/m -1,4 C 5,7 C 4,0 km/h (1 Bft) 0,00 %
05.04.2015 14:45 7,1 C 51 % 1018,8 hPa 0,0 l/m 0,0 km/h (0 Bft) SO 125 15 min 0,000 mm 1,0 UV-I 767 W/m -2,3 C 7,1 C 0,0 km/h (0 Bft) 0,00 %
05.04.2015 15:00 5,5 C 57 % 1019,4 hPa 0,0 l/m 9,7 km/h (2 Bft) O-SO 116 0 min 0,000 mm 0,0 UV-I 146 W/m -2,3 C 2,8 C 11,9 km/h (2 Bft) 0,00 %
05.04.2015 15:15 3,8 C 66 % 1019,6 hPa 0,0 l/m 0,0 km/h (0 Bft) W-SW 254 0 min 0,000 mm 2,0 UV-I 46 W/m -2,0 C 3,8 C 0,0 km/h (0 Bft) 0,00 %
05.04.2015 15:30 3,7 C 71 % 1019,6 hPa 0,3 l/m 0,0 km/h (0 Bft) W-SW 256 0 min 0,000 mm 2,0 UV-I 170 W/m -1,1 C 3,7 C 0,0 km/h (0 Bft) 0,00 %
05.04.2015 15:45 4,5 C 71 % 1019,4 hPa 0,0 l/m 0,0 km/h (0 Bft) N 355 0 min 0,000 mm 2,0 UV-I 173 W/m -0,3 C 4,5 C 0,0 km/h (0 Bft) 0,00 %
05.04.2015 16:00 5,9 C 62 % 1019,4 hPa 0,0 l/m 0,0 km/h (0 Bft) O 89 0 min 0,000 mm 2,0 UV-I 232 W/m -0,8 C 5,9 C 0,0 km/h (0 Bft) 0,00 %
05.04.2015 16:15 6,1 C 63 % 1019,2 hPa 0,0 l/m 0,0 km/h (0 Bft) S-SW 204 0 min 0,000 mm 2,0 UV-I 194 W/m -0,4 C 6,1 C 0,0 km/h (0 Bft) 0,00 %
05.04.2015 16:30 5,9 C 60 % 1019,3 hPa 0,0 l/m 0,0 km/h (0 Bft) SW 228 0 min 0,000 mm 2,0 UV-I 170 W/m -1,3 C 5,9 C 0,0 km/h (0 Bft) 0,00 %
05.04.2015 16:45 6,2 C 59 % 1019,3 hPa 0,0 l/m 0,0 km/h (0 Bft) S-SW 193 0 min 0,000 mm 2,0 UV-I 181 W/m -1,2 C 6,2 C 0,0 km/h (0 Bft) 0,00 %
05.04.2015 17:00 7,3 C 54 % 1019,1 hPa 0,0 l/m 0,4 km/h (0 Bft) S-SW 205 0 min 0,000 mm 2,0 UV-I 203 W/m -1,4 C 7,3 C 4,0 km/h (1 Bft) 0,00 %
05.04.2015 17:15 6,6 C 53 % 1019,3 hPa 0,0 l/m 10,4 km/h (2 Bft) O 96 15 min 0,000 mm 1,0 UV-I 605 W/m -2,3 C 3,6 C 11,9 km/h (2 Bft) 0,00 %
05.04.2015 17:30 4,6 C 66 % 1019,7 hPa 0,0 l/m 2,9 km/h (1 Bft) O-SO 112 0 min 0,000 mm 1,0 UV-I 123 W/m -1,2 C 4,6 C 4,0 km/h (1 Bft) 0,00 %
05.04.2015 17:45 3,4 C 73 % 1020,4 hPa 0,0 l/m 1,8 km/h (1 Bft) W-SW 256 0 min 0,000 mm 1,0 UV-I 90 W/m -1,0 C 3,4 C 4,0 km/h (1 Bft) 0,00 %
05.04.2015 18:00 3,5 C 71 % 1020,5 hPa 0,0 l/m 4,7 km/h (1 Bft) NO 42 15 min 0,000 mm 0,0 UV-I 321 W/m -1,3 C 3,5 C 7,9 km/h (2 Bft) 0,00 %
05.04.2015 18:15 4,2 C 69 % 1020,6 hPa 0,0 l/m 0,0 km/h (0 Bft) S 176 15 min 0,000 mm 0,0 UV-I 348 W/m -1,0 C 4,2 C 0,0 km/h (0 Bft) 0,00 %
05.04.2015 18:30 3,3 C 73 % 1020,9 hPa 0,0 l/m 0,0 km/h (0 Bft) SW 220 0 min 0,000 mm 0,0 UV-I 34 W/m -1,1 C 3,3 C 0,0 km/h (0 Bft) 0,00 %
05.04.2015 18:45 2,8 C 74 % 1021,1 hPa 0,0 l/m 0,0 km/h (0 Bft) S-SW 207 0 min 0,000 mm 0,0 UV-I 20 W/m -1,4 C 2,8 C 0,0 km/h (0 Bft) 0,00 %
05.04.2015 19:00 2,3 C 73 % 1021,3 hPa 0,0 l/m 0,0 km/h (0 Bft) SW 219 0 min 0,000 mm 0,0 UV-I 20 W/m -2,0 C 2,3 C 0,0 km/h (0 Bft) 0,00 %
05.04.2015 19:15 1,9 C 74 % 1021,4 hPa 0,0 l/m 0,0 km/h (0 Bft) O-SO 106 0 min 0,000 mm 0,0 UV-I 20 W/m -2,2 C 1,9 C 0,0 km/h (0 Bft) 0,00 %
05.04.2015 19:30 1,6 C 75 % 1021,8 hPa 0,0 l/m 0,0 km/h (0 Bft) SW 235 0 min 0,000 mm 0,0 UV-I 2 W/m -2,3 C 1,6 C 0,0 km/h (0 Bft) 0,00 %
05.04.2015 19:45 1,5 C 77 % 1022,0 hPa 0,0 l/m 0,0 km/h (0 Bft) S-SW 195 0 min 0,000 mm 0,0 UV-I 0 W/m -2,1 C 1,5 C 0,0 km/h (0 Bft) 0,00 %
05.04.2015 20:00 1,3 C 79 % 1022,1 hPa 0,0 l/m 0,0 km/h (0 Bft) SW 225 0 min 0,000 mm 0,0 UV-I 0 W/m -1,9 C 1,3 C 0,0 km/h (0 Bft) 0,00 %
05.04.2015 20:15 1,2 C 79 % 1022,4 hPa 0,0 l/m 0,0 km/h (0 Bft) S-SW 207 0 min 0,000 mm 0,0 UV-I 0 W/m -2,0 C 1,2 C 0,0 km/h (0 Bft) 0,00 %
05.04.2015 20:30 1,0 C 80 % 1022,6 hPa 0,0 l/m 0,0 km/h (0 Bft) S 189 0 min 0,000 mm 0,0 UV-I 0 W/m -2,1 C 1,0 C 0,0 km/h (0 Bft) 0,00 %
05.04.2015 20:45 0,8 C 80 % 1022,8 hPa 0,0 l/m 0,0 km/h (0 Bft) S 183 0 min 0,000 mm 0,0 UV-I 0 W/m -2,2 C 0,8 C 0,0 km/h (0 Bft) 0,00 %
05.04.2015 21:00 0,6 C 81 % 1022,7 hPa 0,0 l/m 0,0 km/h (0 Bft) S 179 0 min 0,000 mm 0,0 UV-I 0 W/m -2,3 C 0,6 C 0,0 km/h (0 Bft) 0,00 %
05.04.2015 21:15 0,7 C 81 % 1023,0 hPa 0,0 l/m 0,0 km/h (0 Bft) S 173 0 min 0,000 mm 0,0 UV-I 0 W/m -2,2 C 0,7 C 0,0 km/h (0 Bft) 0,00 %
05.04.2015 21:30 0,9 C 81 % 1022,9 hPa 0,0 l/m 0,0 km/h (0 Bft) SW 219 0 min 0,000 mm 0,0 UV-I 0 W/m -2,0 C 0,9 C 0,0 km/h (0 Bft) 0,00 %
05.04.2015 21:45 0,9 C 81 % 1023,2 hPa 0,0 l/m 0,0 km/h (0 Bft) SW 221 0 min 0,000 mm 0,0 UV-I 0 W/m -2,0 C 0,9 C 0,0 km/h (0 Bft) 0,00 %
05.04.2015 22:00 0,9 C 81 % 1023,2 hPa 0,0 l/m 0,0 km/h (0 Bft) S-SW 204 0 min 0,000 mm 0,0 UV-I 0 W/m -2,0 C 0,9 C 0,0 km/h (0 Bft) 0,00 %
05.04.2015 22:15 0,9 C 81 % 1023,1 hPa 0,0 l/m 0,0 km/h (0 Bft) SO 136 0 min 0,000 mm 0,0 UV-I 0 W/m -2,0 C 0,9 C 0,0 km/h (0 Bft) 0,00 %
05.04.2015 22:30 0,9 C 81 % 1023,2 hPa 0,0 l/m 0,0 km/h (0 Bft) S 190 0 min 0,000 mm 0,0 UV-I 0 W/m -2,0 C 0,9 C 0,0 km/h (0 Bft) 0,00 %
05.04.2015 22:45 0,8 C 81 % 1023,0 hPa 0,0 l/m 0,0 km/h (0 Bft) SW 219 0 min 0,000 mm 0,0 UV-I 0 W/m -2,1 C 0,8 C 0,0 km/h (0 Bft) 0,00 %
05.04.2015 23:00 0,8 C 80 % 1023,2 hPa 0,0 l/m 0,0 km/h (0 Bft) S 191 0 min 0,000 mm 0,0 UV-I 0 W/m -2,2 C 0,8 C 0,0 km/h (0 Bft) 0,00 %
05.04.2015 23:15 0,8 C 80 % 1023,1 hPa 0,0 l/m 0,0 km/h (0 Bft) S-SW 206 0 min 0,000 mm 0,0 UV-I 0 W/m -2,2 C 0,8 C 0,0 km/h (0 Bft) 0,00 %
05.04.2015 23:30 0,9 C 80 % 1023,1 hPa 0,0 l/m 0,0 km/h (0 Bft) S 178 0 min 0,000 mm 0,0 UV-I 0 W/m -2,2 C 0,9 C 0,0 km/h (0 Bft) 0,00 %
05.04.2015 23:45 0,9 C 79 % 1023,3 hPa 0,0 l/m 0,0 km/h (0 Bft) S 173 0 min 0,000 mm 0,0 UV-I 0 W/m -2,3 C 0,9 C 0,0 km/h (0 Bft) 0,00 %
_ Min-Zeit 06:45 13:00 00:00 - 00:00 - - - - - - 04:30 06:45 00:00 00:00
Minimum _ -0,5 C 50 % 1014,1 hPa - 0,0 km/h (0 Bft) - - - - - - -6,2 C -0,5 C 0,0 km/h (0 Bft) 0,00 %
_ Max-Zeit 17:00 21:00 23:45 14:15 17:15 - - 10:00 00:00 13:30 14:45 15:45 17:00 12:30 00:00
Maximum _ 7,3 C 81 % 1023,3 hPa 0,3 l/m 10,4 km/h
O (2 Bft)
- - 15 min 0,000 mm 5,0 UV-I 767 W/m -0,3 C 7,3 C 11,9 km/h
W-SW (2 Bft)
0,00 %
Durchschnitt _ 2,7 C 65 % 1018,9 hPa #0,6 l/m 0,7 km/h (0 Bft) W-SW - #3:00 h #0,000 mm 2,0 UV-I 216 W/m -3,2 C 2,6 C 1,3 km/h (1 Bft) 0,00 %